createdAt,value
2023-05-19T00:00:23.054Z,8.87
2023-05-19T00:02:51.262Z,8.85
2023-05-19T00:05:19.943Z,8.85
2023-05-19T00:07:48.187Z,8.86
2023-05-19T00:10:17.586Z,8.89
2023-05-19T00:12:45.891Z,8.81
2023-05-19T00:15:16.252Z,8.77
2023-05-19T00:17:43.918Z,8.87
2023-05-19T00:20:12.818Z,8.82
2023-05-19T00:22:47.342Z,8.91
2023-05-19T00:25:15.867Z,8.72
2023-05-19T00:27:48.621Z,8.79
2023-05-19T00:30:18.512Z,8.81
2023-05-19T00:32:49.263Z,8.89
2023-05-19T00:35:17.795Z,8.79
2023-05-19T00:37:45.529Z,8.92
2023-05-19T00:40:13.179Z,8.92
2023-05-19T00:42:41.240Z,8.94
2023-05-19T00:45:09.833Z,8.95
2023-05-19T00:47:38.896Z,8.95
2023-05-19T00:50:07.522Z,8.98
2023-05-19T00:52:35.654Z,9.02
2023-05-19T00:55:03.512Z,8.99
2023-05-19T00:57:31.510Z,8.96
2023-05-19T00:59:59.101Z,8.94
2023-05-19T01:02:29.826Z,9.08
2023-05-19T01:04:59.584Z,9.06
2023-05-19T01:07:27.385Z,8.99
2023-05-19T01:09:55.131Z,8.94
2023-05-19T01:12:22.618Z,8.87
2023-05-19T01:14:50.300Z,8.81
2023-05-19T01:17:23.592Z,8.82
2023-05-19T01:20:06.595Z,8.77
2023-05-19T01:22:43.754Z,8.74
2023-05-19T01:25:38.741Z,8.71
2023-05-19T01:28:32.322Z,8.70
2023-05-19T01:31:02.093Z,8.67
2023-05-19T01:33:31.658Z,8.55
2023-05-19T01:36:00.771Z,8.55
2023-05-19T01:38:29.431Z,8.59
2023-05-19T01:40:58.409Z,8.59
2023-05-19T01:43:29.329Z,8.53
2023-05-19T01:45:58.788Z,8.52
2023-05-19T01:48:28.334Z,8.55
2023-05-19T01:50:58.953Z,8.48
2023-05-19T01:53:26.519Z,8.49
2023-05-19T01:55:56.207Z,8.48
2023-05-19T01:58:30.642Z,8.49
2023-05-19T02:01:01.520Z,8.62
2023-05-19T02:03:55.500Z,8.50
2023-05-19T02:06:31.169Z,8.48
2023-05-19T02:09:01.856Z,8.49
2023-05-19T02:11:37.411Z,8.45
2023-05-19T02:14:10.159Z,8.49
2023-05-19T02:16:37.643Z,8.48
2023-05-19T02:19:06.718Z,8.41
2023-05-19T02:21:34.572Z,8.47
2023-05-19T02:24:02.136Z,8.54
2023-05-19T02:26:29.794Z,8.43
2023-05-19T02:28:57.311Z,8.56
2023-05-19T02:31:25.028Z,8.38
2023-05-19T02:33:54.423Z,8.49
2023-05-19T02:36:26.499Z,8.55
2023-05-19T02:38:54.024Z,8.56
2023-05-19T02:41:23.228Z,8.51
2023-05-19T02:43:50.939Z,8.48
2023-05-19T02:46:18.564Z,8.40
2023-05-19T02:48:48.488Z,8.52
2023-05-19T02:51:16.043Z,8.48
2023-05-19T02:53:44.962Z,8.37
2023-05-19T02:56:14.633Z,8.39
2023-05-19T02:58:43.089Z,8.61
2023-05-19T03:01:11.024Z,8.39
2023-05-19T03:03:38.935Z,8.46
2023-05-19T03:06:08.753Z,8.45
2023-05-19T03:08:36.553Z,8.50
2023-05-19T03:11:05.477Z,8.42
2023-05-19T03:13:34.906Z,8.41
2023-05-19T03:16:03.446Z,8.47
2023-05-19T03:18:31.046Z,8.50
2023-05-19T03:20:58.574Z,8.40
2023-05-19T03:23:26.619Z,8.31
2023-05-19T03:25:55.933Z,9.13
2023-05-19T03:28:27.237Z,8.46
2023-05-19T03:30:54.912Z,8.69
2023-05-19T03:33:23.899Z,8.79
2023-05-19T03:35:53.111Z,8.66
2023-05-19T03:38:20.821Z,8.57
2023-05-19T03:40:48.412Z,8.82
2023-05-19T03:43:16.320Z,8.64
2023-05-19T03:45:45.396Z,8.46
2023-05-19T03:48:13.729Z,8.63
2023-05-19T03:50:41.383Z,8.21
2023-05-19T03:53:08.965Z,8.16
2023-05-19T03:55:37.246Z,8.17
2023-05-19T03:58:04.834Z,8.32
2023-05-19T04:00:32.670Z,8.64
2023-05-19T04:03:01.945Z,8.51
2023-05-19T04:05:29.590Z,8.32
2023-05-19T04:07:57.298Z,8.38
2023-05-19T04:10:24.822Z,8.76
2023-05-19T04:12:52.719Z,8.73
2023-05-19T04:15:20.282Z,8.64
2023-05-19T04:17:47.909Z,8.89
2023-05-19T04:20:16.787Z,8.40
2023-05-19T04:22:44.290Z,8.49
2023-05-19T04:25:11.914Z,8.37
2023-05-19T04:27:39.785Z,8.18
2023-05-19T04:30:08.564Z,8.46
2023-05-19T04:32:37.437Z,8.68
2023-05-19T04:35:05.766Z,8.53
2023-05-19T04:37:38.374Z,8.48
2023-05-19T04:40:09.326Z,8.85
2023-05-19T04:42:36.843Z,8.89
2023-05-19T04:45:05.556Z,8.85
2023-05-19T04:47:36.847Z,9.38
2023-05-19T04:50:05.061Z,8.82
2023-05-19T04:52:34.063Z,8.94
2023-05-19T04:55:01.619Z,9.19
2023-05-19T04:57:29.163Z,8.75
2023-05-19T04:59:59.898Z,9.07
2023-05-19T05:02:28.232Z,9.40
2023-05-19T05:04:56.603Z,9.87
2023-05-19T05:07:24.211Z,9.21
2023-05-19T05:09:53.081Z,10.27
2023-05-19T05:12:21.119Z,9.49
2023-05-19T05:14:49.853Z,10.00
2023-05-19T05:17:17.963Z,9.72
2023-05-19T05:19:46.064Z,10.35
2023-05-19T05:22:14.310Z,11.05
2023-05-19T05:24:42.269Z,10.36
2023-05-19T05:27:11.551Z,10.03
2023-05-19T05:29:39.114Z,10.33
2023-05-19T05:32:07.920Z,10.90
2023-05-19T05:34:35.939Z,10.91
2023-05-19T05:37:03.465Z,11.52
2023-05-19T05:39:31.794Z,11.83
2023-05-19T05:41:59.320Z,11.48
2023-05-19T05:44:28.182Z,11.45
2023-05-19T05:46:56.215Z,11.60
2023-05-19T05:49:24.288Z,10.54
2023-05-19T05:52:04.976Z,11.50
2023-05-19T05:54:34.039Z,10.90
2023-05-19T05:57:02.536Z,11.03
2023-05-19T05:59:31.395Z,12.17
2023-05-19T06:01:59.095Z,12.66
2023-05-19T06:04:26.678Z,12.98
2023-05-19T06:07:00.944Z,12.71
2023-05-19T06:09:29.767Z,11.69
2023-05-19T06:11:59.475Z,10.54
2023-05-19T06:14:27.061Z,10.75
2023-05-19T06:16:56.262Z,10.89
2023-05-19T06:19:25.524Z,13.30
2023-05-19T06:21:55.495Z,13.56
2023-05-19T06:24:23.007Z,12.63
2023-05-19T06:26:50.542Z,11.29
2023-05-19T06:29:18.186Z,11.97
2023-05-19T06:31:46.577Z,12.22
2023-05-19T06:34:17.615Z,12.08
2023-05-19T06:36:45.269Z,11.84
2023-05-19T06:39:12.814Z,11.52
2023-05-19T06:41:40.356Z,12.22
2023-05-19T06:44:08.374Z,12.67
2023-05-19T06:46:36.112Z,13.14
2023-05-19T06:49:03.666Z,13.28
2023-05-19T06:51:32.721Z,13.91
2023-05-19T06:54:00.242Z,13.59
2023-05-19T06:56:27.744Z,13.59
2023-05-19T06:58:55.452Z,13.62
2023-05-19T07:01:23.153Z,14.68
2023-05-19T07:03:50.891Z,13.42
2023-05-19T07:06:18.502Z,13.40
2023-05-19T07:08:47.359Z,14.13
2023-05-19T07:11:15.312Z,15.03
2023-05-19T07:13:42.860Z,12.92
2023-05-19T07:16:10.649Z,15.21
2023-05-19T07:18:41.305Z,13.67
2023-05-19T07:21:08.925Z,12.97
2023-05-19T07:23:36.553Z,15.15
2023-05-19T07:26:05.888Z,17.42
2023-05-19T07:28:34.289Z,15.52
2023-05-19T07:31:02.397Z,17.97
2023-05-19T07:33:30.000Z,15.59
2023-05-19T07:35:57.521Z,14.27
2023-05-19T07:38:25.098Z,15.71
2023-05-19T07:40:52.631Z,14.52
2023-05-19T07:43:21.470Z,17.75
2023-05-19T07:45:49.037Z,18.73
2023-05-19T07:48:18.707Z,16.03
2023-05-19T07:50:46.680Z,17.31
2023-05-19T07:53:14.383Z,14.57
2023-05-19T07:55:42.125Z,14.97
2023-05-19T07:58:09.780Z,15.93
2023-05-19T08:00:38.657Z,15.28
2023-05-19T08:03:06.340Z,16.39
2023-05-19T08:05:35.359Z,16.03
2023-05-19T08:08:02.953Z,16.21
2023-05-19T08:10:30.762Z,15.48
2023-05-19T08:12:58.627Z,16.07
2023-05-19T08:15:26.421Z,15.02
2023-05-19T08:17:55.484Z,19.96
2023-05-19T08:20:24.389Z,17.62
2023-05-19T08:22:51.989Z,20.26
2023-05-19T08:25:19.786Z,17.30
2023-05-19T08:27:47.384Z,17.91
2023-05-19T08:30:14.926Z,17.53
2023-05-19T08:32:42.610Z,17.89
2023-05-19T08:35:12.021Z,16.65
2023-05-19T08:37:39.584Z,16.07
2023-05-19T08:40:08.916Z,15.74
2023-05-19T08:42:36.478Z,17.56
2023-05-19T08:45:04.510Z,17.58
2023-05-19T08:47:33.092Z,17.05
2023-05-19T08:50:07.429Z,17.36
2023-05-19T08:52:47.844Z,19.06
2023-05-19T08:55:22.036Z,17.98
2023-05-19T08:57:49.675Z,18.43
2023-05-19T09:00:17.685Z,17.24
2023-05-19T09:02:55.068Z,18.20
2023-05-19T09:05:28.935Z,17.14
2023-05-19T09:07:57.987Z,17.35
2023-05-19T09:10:27.116Z,16.10
2023-05-19T09:12:55.444Z,17.08
2023-05-19T09:15:27.944Z,20.67
2023-05-19T09:18:06.899Z,22.48
2023-05-19T09:20:38.084Z,20.21
2023-05-19T09:23:07.802Z,18.20
2023-05-19T09:25:35.558Z,20.81
2023-05-19T09:28:03.337Z,18.60
2023-05-19T09:30:31.004Z,18.64
2023-05-19T09:32:58.928Z,18.35
2023-05-19T09:35:26.463Z,18.56
2023-05-19T09:37:54.066Z,18.51
2023-05-19T09:40:22.909Z,17.65
2023-05-19T09:42:50.553Z,19.10
2023-05-19T09:45:18.161Z,18.36
2023-05-19T09:47:45.704Z,19.69
2023-05-19T09:50:14.115Z,18.56
2023-05-19T09:52:44.106Z,20.27
2023-05-19T09:55:12.752Z,18.48
2023-05-19T09:57:41.825Z,19.00
2023-05-19T10:00:14.429Z,19.11
2023-05-19T10:02:44.673Z,18.80
2023-05-19T10:05:16.739Z,17.63
2023-05-19T10:07:48.507Z,19.69
2023-05-19T10:10:16.638Z,19.06
2023-05-19T10:12:45.979Z,19.64
2023-05-19T10:15:15.925Z,17.73
2023-05-19T10:17:44.525Z,20.31
2023-05-19T10:20:14.060Z,19.73
2023-05-19T10:22:41.970Z,19.29
2023-05-19T10:25:11.165Z,18.53
2023-05-19T10:27:44.090Z,19.51
2023-05-19T10:30:16.590Z,18.55
2023-05-19T10:32:46.555Z,18.39
2023-05-19T10:35:29.303Z,19.62
2023-05-19T10:38:07.034Z,17.98
2023-05-19T10:40:38.337Z,19.92
2023-05-19T10:43:16.849Z,18.03
2023-05-19T10:45:49.217Z,19.56
2023-05-19T10:48:17.338Z,23.96
2023-05-19T10:50:46.566Z,20.18
2023-05-19T10:53:18.152Z,18.89
2023-05-19T10:55:47.474Z,19.17
2023-05-19T10:58:15.122Z,21.89
2023-05-19T11:00:42.675Z,20.99
2023-05-19T11:03:15.593Z,18.65
2023-05-19T11:05:45.424Z,18.32
2023-05-19T11:08:13.623Z,19.38
2023-05-19T11:10:44.929Z,20.32
2023-05-19T11:13:20.318Z,20.16
2023-05-19T11:15:47.894Z,19.16
2023-05-19T11:18:16.874Z,21.62
2023-05-19T11:20:44.653Z,19.38
2023-05-19T11:23:18.051Z,20.06
2023-05-19T11:25:48.030Z,21.18
2023-05-19T11:28:19.275Z,20.12
2023-05-19T11:30:50.456Z,19.91
2023-05-19T11:33:20.447Z,20.90
2023-05-19T11:35:49.354Z,19.31
2023-05-19T11:38:17.896Z,18.79
2023-05-19T11:40:45.850Z,22.90
2023-05-19T11:43:13.360Z,22.14
2023-05-19T11:45:40.910Z,18.96
2023-05-19T11:48:12.286Z,19.49
2023-05-19T11:50:44.049Z,23.08
2023-05-19T11:53:13.478Z,20.09
2023-05-19T11:55:43.437Z,18.13
2023-05-19T11:58:11.138Z,21.47
2023-05-19T12:00:40.325Z,21.65
2023-05-19T12:03:09.200Z,22.68
2023-05-19T12:05:41.765Z,19.87
2023-05-19T12:08:12.185Z,20.33
2023-05-19T12:10:40.535Z,19.53
2023-05-19T12:13:09.302Z,22.72
2023-05-19T12:15:37.589Z,19.81
2023-05-19T12:18:05.640Z,22.29
2023-05-19T12:20:35.994Z,21.21
2023-05-19T12:23:04.331Z,20.94
2023-05-19T12:25:33.585Z,20.26
2023-05-19T12:28:03.384Z,19.60
2023-05-19T12:30:32.898Z,19.22
2023-05-19T12:33:01.326Z,19.95
2023-05-19T12:35:29.654Z,18.77
2023-05-19T12:37:57.695Z,22.64
2023-05-19T12:40:26.176Z,22.57
2023-05-19T12:42:58.876Z,19.46
2023-05-19T12:45:28.143Z,21.87
2023-05-19T12:47:55.938Z,22.00
2023-05-19T12:50:31.154Z,19.29
2023-05-19T12:52:59.850Z,19.63
2023-05-19T12:55:28.015Z,20.01
2023-05-19T12:57:58.122Z,21.99
2023-05-19T13:00:28.989Z,19.28
2023-05-19T13:02:59.752Z,18.30
2023-05-19T13:05:28.224Z,20.56
2023-05-19T13:07:57.030Z,21.46
2023-05-19T13:10:26.933Z,22.30
2023-05-19T13:12:55.748Z,20.11
2023-05-19T13:15:26.204Z,21.08
2023-05-19T13:17:55.446Z,20.55
2023-05-19T13:20:23.710Z,20.32
2023-05-19T13:22:52.752Z,21.57
2023-05-19T13:25:21.395Z,19.20
2023-05-19T13:27:49.450Z,20.12
2023-05-19T13:30:17.211Z,19.72
2023-05-19T13:32:46.267Z,21.45
2023-05-19T13:35:14.426Z,21.29
2023-05-19T13:37:42.415Z,20.71
2023-05-19T13:40:10.802Z,19.61
2023-05-19T13:42:38.546Z,18.64
2023-05-19T13:45:06.978Z,20.78
2023-05-19T13:47:34.546Z,19.54
2023-05-19T13:50:04.375Z,21.15
2023-05-19T13:52:32.467Z,21.06
2023-05-19T13:55:00.218Z,21.57
2023-05-19T13:57:27.805Z,19.19
2023-05-19T14:00:02.656Z,19.76
2023-05-19T14:02:30.898Z,20.42
2023-05-19T14:04:58.688Z,21.74
2023-05-19T14:07:28.249Z,21.57
2023-05-19T14:09:56.309Z,21.47
2023-05-19T14:12:33.918Z,19.21
2023-05-19T14:15:09.154Z,19.56
2023-05-19T14:17:37.476Z,19.11
2023-05-19T14:20:06.185Z,20.96
2023-05-19T14:22:35.196Z,19.11
2023-05-19T14:25:03.040Z,19.68
2023-05-19T14:27:30.621Z,18.69
2023-05-19T14:29:58.357Z,18.93
2023-05-19T14:32:28.625Z,19.74
2023-05-19T14:34:57.739Z,20.97
2023-05-19T14:37:26.559Z,21.75
2023-05-19T14:39:55.853Z,21.84
2023-05-19T14:42:23.459Z,19.54
2023-05-19T14:44:51.015Z,20.02
2023-05-19T14:47:18.569Z,20.62
2023-05-19T14:49:46.087Z,20.21
2023-05-19T14:52:13.661Z,20.91
2023-05-19T14:54:41.379Z,19.26
2023-05-19T14:57:10.304Z,18.41
2023-05-19T14:59:38.119Z,19.88
2023-05-19T15:02:06.117Z,20.22
2023-05-19T15:04:33.682Z,21.22
2023-05-19T15:09:31.753Z,19.68
2023-05-19T15:12:01.101Z,20.41
2023-05-19T15:14:31.050Z,19.49
2023-05-19T15:16:59.164Z,21.07
2023-05-19T15:19:27.097Z,20.61
2023-05-19T15:21:54.987Z,20.38
2023-05-19T15:24:22.599Z,21.90
2023-05-19T15:26:50.167Z,22.05
2023-05-19T15:29:17.683Z,20.96
2023-05-19T15:31:46.735Z,19.13
2023-05-19T15:34:14.397Z,19.09
2023-05-19T15:36:41.923Z,21.71
2023-05-19T15:39:09.747Z,20.49
2023-05-19T15:41:37.324Z,19.64
2023-05-19T15:44:06.684Z,20.04
2023-05-19T15:46:34.445Z,20.16
2023-05-19T15:49:03.795Z,20.30
2023-05-19T15:51:31.584Z,20.52
2023-05-19T15:53:59.154Z,19.61
2023-05-19T15:56:26.692Z,21.05
2023-05-19T15:58:54.265Z,20.22
2023-05-19T16:01:22.241Z,21.31
2023-05-19T16:03:49.929Z,20.74
2023-05-19T16:06:18.833Z,19.42
2023-05-19T16:08:46.398Z,20.62
2023-05-19T16:11:14.444Z,21.37
2023-05-19T16:13:41.990Z,20.25
2023-05-19T16:16:09.642Z,19.46
2023-05-19T16:18:37.189Z,21.90
2023-05-19T16:21:05.052Z,20.81
2023-05-19T16:23:33.966Z,19.59
2023-05-19T16:26:01.521Z,20.04
2023-05-19T16:28:29.162Z,20.48
2023-05-19T16:30:58.335Z,20.83
2023-05-19T16:33:25.965Z,20.21
2023-05-19T16:35:53.585Z,18.94
2023-05-19T16:38:21.182Z,19.69
2023-05-19T16:40:50.139Z,20.04
2023-05-19T16:43:17.679Z,19.46
2023-05-19T16:45:45.246Z,18.97
2023-05-19T16:48:12.906Z,19.32
2023-05-19T16:50:40.702Z,20.65
2023-05-19T16:53:08.363Z,19.37
2023-05-19T16:55:35.950Z,19.41
2023-05-19T16:58:04.777Z,19.34
2023-05-19T17:00:32.671Z,20.29
2023-05-19T17:03:00.438Z,20.85
2023-05-19T17:05:28.184Z,20.35
2023-05-19T17:07:55.760Z,19.76
2023-05-19T17:10:23.395Z,20.09
2023-05-19T17:12:50.894Z,19.94
2023-05-19T17:15:19.771Z,18.67
2023-05-19T17:17:47.324Z,18.41
2023-05-19T17:20:14.974Z,19.72
2023-05-19T17:22:42.535Z,18.43
2023-05-19T17:25:11.161Z,19.62
2023-05-19T17:27:38.861Z,18.93
2023-05-19T17:30:07.890Z,18.26
2023-05-19T17:32:39.475Z,19.27
2023-05-19T17:35:08.338Z,18.93
2023-05-19T17:37:36.366Z,19.39
2023-05-19T17:40:04.223Z,17.75
2023-05-19T17:42:31.899Z,19.30
2023-05-19T17:44:59.620Z,17.96
2023-05-19T17:47:27.272Z,18.76
2023-05-19T17:49:56.155Z,19.05
2023-05-19T17:52:25.683Z,19.18
2023-05-19T17:54:53.811Z,18.13
2023-05-19T17:57:25.824Z,17.71
2023-05-19T17:59:53.883Z,17.86
2023-05-19T18:02:21.845Z,17.51
2023-05-19T18:04:49.915Z,18.55
2023-05-19T18:07:19.375Z,17.84
2023-05-19T18:09:47.558Z,18.12
2023-05-19T18:12:15.494Z,19.15
2023-05-19T18:14:43.019Z,17.61
2023-05-19T18:17:10.615Z,17.92
2023-05-19T18:19:38.182Z,17.55
2023-05-19T18:22:06.276Z,16.87
2023-05-19T18:24:35.449Z,17.10
2023-05-19T18:27:03.306Z,17.41
2023-05-19T18:29:31.093Z,17.48
2023-05-19T18:31:58.674Z,16.77
2023-05-19T18:34:27.664Z,16.82
2023-05-19T18:36:55.201Z,17.25
2023-05-19T18:39:22.835Z,17.32
2023-05-19T18:41:51.742Z,17.11
2023-05-19T18:44:19.444Z,16.56
2023-05-19T18:46:46.973Z,16.15
2023-05-19T18:49:14.577Z,16.88
2023-05-19T18:51:42.502Z,17.88
2023-05-19T18:54:12.336Z,16.80
2023-05-19T18:56:42.682Z,16.65
2023-05-19T18:59:11.677Z,16.23
2023-05-19T19:01:39.452Z,16.29
2023-05-19T19:04:07.223Z,16.74
2023-05-19T19:06:34.980Z,15.97
2023-05-19T19:09:03.393Z,16.99
2023-05-19T19:11:31.320Z,16.41
2023-05-19T19:13:58.991Z,15.83
2023-05-19T19:16:28.106Z,15.67
2023-05-19T19:18:55.761Z,15.75
2023-05-19T19:21:24.077Z,15.46
2023-05-19T19:23:53.386Z,16.09
2023-05-19T19:26:21.763Z,15.72
2023-05-19T19:28:49.311Z,16.36
2023-05-19T19:31:16.893Z,16.05
2023-05-19T19:33:45.842Z,15.33
2023-05-19T19:36:13.569Z,15.54
2023-05-19T19:38:41.275Z,14.93
2023-05-19T19:41:08.934Z,15.64
2023-05-19T19:43:36.474Z,15.25
2023-05-19T19:46:04.707Z,15.27
2023-05-19T19:48:32.372Z,15.36
2023-05-19T19:51:01.581Z,15.17
2023-05-19T19:53:29.151Z,15.15
2023-05-19T19:55:58.246Z,15.12
2023-05-19T19:58:26.627Z,15.03
2023-05-19T20:00:57.305Z,14.69
2023-05-19T20:03:26.116Z,14.72
2023-05-19T20:05:55.306Z,14.55
2023-05-19T20:08:24.517Z,14.50
2023-05-19T20:10:52.354Z,14.80
2023-05-19T20:13:20.034Z,14.73
2023-05-19T20:15:48.102Z,14.67
2023-05-19T20:18:15.809Z,14.69
2023-05-19T20:20:43.480Z,15.34
2023-05-19T20:23:13.237Z,14.39
2023-05-19T20:25:57.859Z,15.06
2023-05-19T20:28:30.270Z,14.24
2023-05-19T20:30:57.844Z,14.18
2023-05-19T20:33:25.582Z,13.88
2023-05-19T20:35:53.136Z,14.53
2023-05-19T20:38:20.649Z,14.19
2023-05-19T20:40:49.794Z,14.14
2023-05-19T20:43:17.592Z,14.52
2023-05-19T20:45:45.539Z,14.11
2023-05-19T20:48:13.151Z,14.56
2023-05-19T20:50:41.146Z,14.16
2023-05-19T20:53:08.730Z,14.24
2023-05-19T20:55:37.881Z,14.12
2023-05-19T20:58:06.874Z,14.65
2023-05-19T21:00:34.592Z,14.00
2023-05-19T21:03:02.523Z,14.27
2023-05-19T21:05:30.345Z,13.94
2023-05-19T21:07:57.952Z,14.03
2023-05-19T21:10:25.720Z,13.88
2023-05-19T21:12:53.254Z,13.52
2023-05-19T21:15:22.136Z,13.70
2023-05-19T21:17:49.698Z,13.94
2023-05-19T21:20:17.319Z,13.82
2023-05-19T21:22:44.833Z,13.76
2023-05-19T21:25:12.702Z,13.83
2023-05-19T21:27:40.556Z,14.12
2023-05-19T21:30:09.667Z,13.70
2023-05-19T21:32:38.552Z,13.55
2023-05-19T21:35:07.039Z,13.23
2023-05-19T21:37:34.599Z,13.31
2023-05-19T21:40:02.247Z,12.98
2023-05-19T21:42:29.763Z,13.15
2023-05-19T21:44:57.332Z,13.01
2023-05-19T21:47:24.976Z,13.34
2023-05-19T21:49:53.837Z,13.64
2023-05-19T21:52:21.814Z,13.12
2023-05-19T21:54:51.907Z,13.49
2023-05-19T21:57:19.449Z,13.43
2023-05-19T21:59:47.175Z,12.56
2023-05-19T22:02:14.718Z,12.45
2023-05-19T22:04:42.893Z,12.52
2023-05-19T22:07:11.926Z,12.68
2023-05-19T22:09:39.448Z,12.45
2023-05-19T22:12:08.253Z,12.64
2023-05-19T22:14:36.810Z,12.55
2023-05-19T22:17:04.455Z,12.58
2023-05-19T22:19:32.046Z,12.17
2023-05-19T22:22:09.852Z,12.20
2023-05-19T22:24:41.726Z,11.93
2023-05-19T22:27:09.483Z,12.34
2023-05-19T22:29:38.430Z,12.31
2023-05-19T22:32:07.671Z,12.08
2023-05-19T22:34:35.412Z,11.99
2023-05-19T22:37:02.984Z,12.05
2023-05-19T22:39:30.540Z,11.85
2023-05-19T22:41:59.434Z,12.04
2023-05-19T22:44:26.961Z,12.06
2023-05-19T22:46:54.510Z,11.88
2023-05-19T22:49:23.273Z,12.49
2023-05-19T22:51:51.151Z,12.09
2023-05-19T22:54:18.914Z,12.01
2023-05-19T22:56:48.676Z,12.12
2023-05-19T22:59:18.441Z,11.79
2023-05-19T23:01:46.961Z,11.78
2023-05-19T23:04:15.272Z,11.86
2023-05-19T23:06:42.850Z,12.12
2023-05-19T23:09:10.418Z,12.18
2023-05-19T23:11:37.924Z,11.71
2023-05-19T23:14:05.784Z,11.85
2023-05-19T23:16:34.807Z,11.64
2023-05-19T23:19:02.391Z,11.74
2023-05-19T23:21:31.289Z,11.73
2023-05-19T23:23:59.422Z,11.78
2023-05-19T23:26:27.492Z,11.60
2023-05-19T23:28:55.096Z,11.76
2023-05-19T23:31:22.750Z,11.82
2023-05-19T23:33:51.667Z,11.66
2023-05-19T23:36:19.324Z,11.78
2023-05-19T23:38:46.978Z,11.99
2023-05-19T23:41:14.887Z,11.94
2023-05-19T23:43:42.621Z,11.70
2023-05-19T23:46:10.260Z,12.06
2023-05-19T23:48:37.895Z,12.19
2023-05-19T23:51:06.999Z,11.80
2023-05-19T23:53:34.627Z,12.19
2023-05-19T23:56:02.204Z,11.87
2023-05-19T23:58:29.864Z,12.00
